createdAt,value
2023-05-24T00:00:33.313Z,27.80
2023-05-24T00:03:02.838Z,27.95
2023-05-24T00:05:31.470Z,31.45
2023-05-24T00:08:00.272Z,28.95
2023-05-24T00:10:28.268Z,30.65
2023-05-24T00:12:57.981Z,30.00
2023-05-24T00:15:26.157Z,27.30
2023-05-24T00:17:54.239Z,28.73
2023-05-24T00:20:22.350Z,28.65
2023-05-24T00:22:50.404Z,28.58
2023-05-24T00:25:18.404Z,27.52
2023-05-24T00:27:46.471Z,27.55
2023-05-24T00:30:16.091Z,28.05
2023-05-24T00:32:44.152Z,29.63
2023-05-24T00:35:12.184Z,34.17
2023-05-24T00:37:41.937Z,32.45
2023-05-24T00:40:11.139Z,32.03
2023-05-24T00:42:39.246Z,33.85
2023-05-24T00:45:08.503Z,34.95
2023-05-24T00:47:38.234Z,34.10
2023-05-24T00:50:08.462Z,30.85
2023-05-24T00:52:37.037Z,36.85
2023-05-24T00:55:05.544Z,31.60
2023-05-24T00:57:34.159Z,33.30
2023-05-24T01:00:02.192Z,29.95
2023-05-24T01:02:31.014Z,36.05
2023-05-24T01:05:01.011Z,28.23
2023-05-24T01:07:39.087Z,33.03
2023-05-24T01:10:15.701Z,33.10
2023-05-24T01:12:54.551Z,31.67
2023-05-24T01:15:29.249Z,29.88
2023-05-24T01:18:06.487Z,29.15
2023-05-24T01:20:38.831Z,27.85
2023-05-24T01:23:16.139Z,29.77
2023-05-24T01:25:52.588Z,26.77
2023-05-24T01:28:22.578Z,33.17
2023-05-24T01:30:50.797Z,26.55
2023-05-24T01:33:18.869Z,27.85
2023-05-24T01:35:46.837Z,27.60
2023-05-24T01:38:15.972Z,23.80
2023-05-24T01:40:45.064Z,25.85
2023-05-24T01:43:18.318Z,25.40
2023-05-24T01:45:56.712Z,28.30
2023-05-24T01:48:32.933Z,25.38
2023-05-24T01:51:02.182Z,24.80
2023-05-24T01:53:35.058Z,26.42
2023-05-24T01:56:05.164Z,24.02
2023-05-24T01:58:34.496Z,27.08
2023-05-24T02:01:04.177Z,27.48
2023-05-24T02:03:32.885Z,27.95
2023-05-24T02:06:01.008Z,28.27
2023-05-24T02:08:28.997Z,27.38
2023-05-24T02:10:57.069Z,27.92
2023-05-24T02:13:25.079Z,25.90
2023-05-24T02:15:53.760Z,31.40
2023-05-24T02:18:23.133Z,30.10
2023-05-24T02:20:51.326Z,31.13
2023-05-24T02:23:19.454Z,33.03
2023-05-24T02:25:47.440Z,33.42
2023-05-24T02:28:16.050Z,32.00
2023-05-24T02:30:44.908Z,34.03
2023-05-24T02:33:13.298Z,35.75
2023-05-24T02:35:42.690Z,34.45
2023-05-24T02:38:10.696Z,39.03
2023-05-24T02:40:38.668Z,33.60
2023-05-24T02:43:06.733Z,34.28
2023-05-24T02:45:34.725Z,34.00
2023-05-24T02:48:02.765Z,33.13
2023-05-24T02:50:30.843Z,33.65
2023-05-24T02:53:00.197Z,32.30
2023-05-24T02:55:29.185Z,30.50
2023-05-24T02:57:57.284Z,31.75
2023-05-24T03:00:25.463Z,28.23
2023-05-24T03:02:53.584Z,33.72
2023-05-24T03:05:21.774Z,33.28
2023-05-24T03:07:49.794Z,28.50
2023-05-24T03:10:19.296Z,28.90
2023-05-24T03:12:47.311Z,32.22
2023-05-24T03:15:15.327Z,29.27
2023-05-24T03:17:43.360Z,31.00
2023-05-24T03:20:12.498Z,26.70
2023-05-24T03:22:40.578Z,29.55
2023-05-24T03:25:09.706Z,31.75
2023-05-24T03:27:39.036Z,31.38
2023-05-24T03:30:08.411Z,27.88
2023-05-24T03:32:36.509Z,30.33
2023-05-24T03:35:04.672Z,35.20
2023-05-24T03:37:32.936Z,35.67
2023-05-24T03:40:01.013Z,32.30
2023-05-24T03:42:28.999Z,32.97
2023-05-24T03:44:58.331Z,33.35
2023-05-24T03:47:26.386Z,30.67
2023-05-24T03:49:54.386Z,27.38
2023-05-24T03:52:22.350Z,29.95
2023-05-24T03:54:50.681Z,27.05
2023-05-24T03:57:18.760Z,26.58
2023-05-24T03:59:46.808Z,26.10
2023-05-24T04:02:16.149Z,26.33
2023-05-24T04:04:44.162Z,25.02
2023-05-24T04:07:13.923Z,27.15
2023-05-24T04:09:41.926Z,29.58
2023-05-24T04:12:09.913Z,35.65
2023-05-24T04:14:39.048Z,32.45
2023-05-24T04:17:07.936Z,33.50
2023-05-24T04:19:37.441Z,33.67
2023-05-24T04:22:05.745Z,30.70
2023-05-24T04:24:33.831Z,28.85
2023-05-24T04:27:02.007Z,29.67
2023-05-24T04:29:33.899Z,31.83
2023-05-24T04:32:01.986Z,32.20
2023-05-24T04:34:33.800Z,31.45
2023-05-24T04:37:03.668Z,38.95
2023-05-24T04:39:31.697Z,31.45
2023-05-24T04:42:00.686Z,33.03
2023-05-24T04:44:28.731Z,28.70
2023-05-24T04:46:57.921Z,28.75
2023-05-24T04:49:26.051Z,25.67
2023-05-24T04:51:55.201Z,25.25
2023-05-24T04:54:24.789Z,23.08
2023-05-24T04:56:53.142Z,22.42
2023-05-24T04:59:21.149Z,22.83
2023-05-24T05:01:49.771Z,25.02
2023-05-24T05:04:18.302Z,23.27
2023-05-24T05:06:46.612Z,28.00
2023-05-24T05:09:15.964Z,23.70
2023-05-24T05:11:46.025Z,23.33
2023-05-24T05:14:14.025Z,22.70
2023-05-24T05:16:42.288Z,21.60
2023-05-24T05:19:10.361Z,18.90
2023-05-24T05:21:39.760Z,17.95
2023-05-24T05:24:07.821Z,14.90
2023-05-24T05:26:36.463Z,16.42
2023-05-24T05:29:05.868Z,18.35
2023-05-24T05:31:33.894Z,18.73
2023-05-24T05:34:01.900Z,17.67
2023-05-24T05:36:29.941Z,15.85
2023-05-24T05:38:57.959Z,20.55
2023-05-24T05:41:26.178Z,18.88
2023-05-24T05:43:54.252Z,24.42
2023-05-24T05:46:23.593Z,20.40
2023-05-24T05:48:51.578Z,20.75
2023-05-24T05:51:19.570Z,20.77
2023-05-24T05:53:47.569Z,21.27
2023-05-24T05:56:15.592Z,23.45
2023-05-24T05:58:43.595Z,25.33
2023-05-24T06:01:11.633Z,21.08
2023-05-24T06:03:41.462Z,19.55
2023-05-24T06:06:09.705Z,18.77
2023-05-24T06:08:37.680Z,17.83
2023-05-24T06:11:05.720Z,21.50
2023-05-24T06:13:33.810Z,17.85
2023-05-24T06:16:02.313Z,19.08
2023-05-24T06:18:30.606Z,18.63
2023-05-24T06:21:00.137Z,17.88
2023-05-24T06:23:28.218Z,19.10
2023-05-24T06:25:56.260Z,17.35
2023-05-24T06:28:24.289Z,17.60
2023-05-24T06:30:52.290Z,20.40
2023-05-24T06:33:20.822Z,19.23
2023-05-24T06:35:49.040Z,19.73
2023-05-24T06:38:18.779Z,19.20
2023-05-24T06:40:46.810Z,18.13
2023-05-24T06:43:16.238Z,19.05
2023-05-24T06:45:44.686Z,21.13
2023-05-24T06:48:12.803Z,22.20
2023-05-24T06:50:42.826Z,21.15
2023-05-24T06:53:11.582Z,23.85
2023-05-24T06:55:40.924Z,20.20
2023-05-24T06:58:14.282Z,20.40
2023-05-24T07:00:42.922Z,18.70
2023-05-24T07:03:11.382Z,18.93
2023-05-24T07:05:39.766Z,18.48
2023-05-24T07:08:08.030Z,18.50
2023-05-24T07:10:36.011Z,20.37
2023-05-24T07:13:05.374Z,19.02
2023-05-24T07:15:33.417Z,20.48
2023-05-24T07:18:01.601Z,18.13
2023-05-24T07:20:29.751Z,19.90
2023-05-24T07:22:57.866Z,17.97
2023-05-24T07:25:25.901Z,25.27
2023-05-24T07:27:54.164Z,19.50
2023-05-24T07:30:31.688Z,15.97
2023-05-24T07:33:01.937Z,15.90
2023-05-24T07:35:31.138Z,14.03
2023-05-24T07:37:59.160Z,12.35
2023-05-24T07:40:27.179Z,13.25
2023-05-24T07:42:55.184Z,16.63
2023-05-24T07:45:24.568Z,11.90
2023-05-24T07:47:54.528Z,14.20
2023-05-24T07:50:24.902Z,18.70
2023-05-24T07:52:52.969Z,14.35
2023-05-24T07:55:21.126Z,15.40
2023-05-24T07:57:49.137Z,13.77
2023-05-24T08:00:18.294Z,14.60
2023-05-24T08:02:47.674Z,16.02
2023-05-24T08:05:16.670Z,15.35
2023-05-24T08:07:45.728Z,15.98
2023-05-24T08:10:14.156Z,16.42
2023-05-24T08:12:42.386Z,14.93
2023-05-24T08:15:11.081Z,15.02
2023-05-24T08:17:39.932Z,17.75
2023-05-24T08:20:13.737Z,16.95
2023-05-24T08:22:42.451Z,16.90
2023-05-24T08:25:11.202Z,21.20
2023-05-24T08:27:39.206Z,18.83
2023-05-24T08:30:08.637Z,17.23
2023-05-24T08:32:36.848Z,18.40
2023-05-24T08:35:19.397Z,16.23
2023-05-24T08:37:50.814Z,21.08
2023-05-24T08:40:19.081Z,16.95
2023-05-24T08:42:47.782Z,20.45
2023-05-24T08:45:16.735Z,16.45
2023-05-24T08:47:45.026Z,15.75
2023-05-24T08:50:13.704Z,15.77
2023-05-24T08:52:43.076Z,14.93
2023-05-24T08:55:12.809Z,14.48
2023-05-24T08:57:41.971Z,14.80
2023-05-24T09:00:13.117Z,22.77
2023-05-24T09:02:43.309Z,19.42
2023-05-24T09:05:14.443Z,19.20
2023-05-24T09:07:44.851Z,20.80
2023-05-24T09:10:14.532Z,17.35
2023-05-24T09:12:46.631Z,16.35
2023-05-24T09:15:14.733Z,12.77
2023-05-24T09:17:42.849Z,13.82
2023-05-24T09:20:11.912Z,15.02
2023-05-24T09:22:43.074Z,13.15
2023-05-24T09:25:14.204Z,13.00
2023-05-24T09:27:42.430Z,17.80
2023-05-24T09:30:12.627Z,12.63
2023-05-24T09:32:41.335Z,13.30
2023-05-24T09:35:10.763Z,11.88
2023-05-24T09:37:40.521Z,15.30
2023-05-24T09:40:18.527Z,20.25
2023-05-24T09:42:46.778Z,17.42
2023-05-24T09:45:14.829Z,16.52
2023-05-24T09:47:45.176Z,12.48
2023-05-24T09:50:15.131Z,20.88
2023-05-24T09:52:44.176Z,13.07
2023-05-24T09:55:17.892Z,13.00
2023-05-24T09:57:47.573Z,12.80
2023-05-24T10:00:17.766Z,13.65
2023-05-24T10:02:53.600Z,17.35
2023-05-24T10:05:22.633Z,15.35
2023-05-24T10:07:50.973Z,17.95
2023-05-24T10:10:20.574Z,17.55
2023-05-24T10:12:49.880Z,16.33
2023-05-24T10:15:18.640Z,13.02
2023-05-24T10:17:46.656Z,14.35
2023-05-24T10:20:15.559Z,15.25
2023-05-24T10:22:46.372Z,12.00
2023-05-24T10:25:18.772Z,13.73
2023-05-24T10:27:50.748Z,12.80
2023-05-24T10:30:28.099Z,14.95
2023-05-24T10:32:57.993Z,14.05
2023-05-24T10:35:27.443Z,15.77
2023-05-24T10:37:55.978Z,13.60
2023-05-24T10:40:26.085Z,17.90
2023-05-24T10:42:55.535Z,13.38
2023-05-24T10:45:35.979Z,11.73
2023-05-24T10:48:11.300Z,13.15
2023-05-24T10:50:39.396Z,14.75
2023-05-24T10:53:14.228Z,14.85
2023-05-24T10:55:56.227Z,17.52
2023-05-24T10:58:44.947Z,15.48
2023-05-24T11:01:15.540Z,15.57
2023-05-24T11:03:43.644Z,13.95
2023-05-24T11:06:11.698Z,14.75
2023-05-24T11:08:43.689Z,15.05
2023-05-24T11:13:48.722Z,16.20
2023-05-24T11:16:34.815Z,18.02
2023-05-24T11:19:13.427Z,20.55
2023-05-24T11:21:43.947Z,22.80
2023-05-24T11:24:12.170Z,19.90
2023-05-24T11:26:41.194Z,20.60
2023-05-24T11:29:10.700Z,16.27
2023-05-24T11:31:43.173Z,18.40
2023-05-24T11:34:12.797Z,18.02
2023-05-24T11:36:41.866Z,16.80
2023-05-24T11:39:10.369Z,15.50
2023-05-24T11:41:39.979Z,14.88
2023-05-24T11:44:10.705Z,15.65
2023-05-24T11:46:40.320Z,14.73
2023-05-24T11:49:08.530Z,20.85
2023-05-24T11:51:37.659Z,24.33
2023-05-24T11:54:06.004Z,23.23
2023-05-24T11:56:34.326Z,17.58
2023-05-24T11:59:15.375Z,18.98
2023-05-24T12:01:43.931Z,17.45
2023-05-24T12:04:12.928Z,18.38
2023-05-24T12:06:42.950Z,21.15
2023-05-24T12:09:13.538Z,18.33
2023-05-24T12:11:42.810Z,16.25
2023-05-24T12:14:15.966Z,15.55
2023-05-24T12:16:44.842Z,14.73
2023-05-24T12:19:31.680Z,15.27
2023-05-24T12:22:01.332Z,15.27
2023-05-24T12:24:32.276Z,17.63
2023-05-24T12:27:02.867Z,13.65
2023-05-24T12:29:36.752Z,12.55
2023-05-24T12:32:05.868Z,15.85
2023-05-24T12:34:34.121Z,16.63
2023-05-24T12:37:03.664Z,16.10
2023-05-24T12:39:34.265Z,17.08
2023-05-24T12:42:03.324Z,18.83
2023-05-24T12:44:32.959Z,16.17
2023-05-24T12:47:04.240Z,18.33
2023-05-24T12:49:32.920Z,15.18
2023-05-24T12:52:01.872Z,16.67
2023-05-24T12:54:30.872Z,14.43
2023-05-24T12:57:02.656Z,14.77
2023-05-24T12:59:31.051Z,14.23
2023-05-24T13:01:59.246Z,15.65
2023-05-24T13:04:30.702Z,15.10
2023-05-24T13:06:58.774Z,23.92
2023-05-24T13:09:26.959Z,18.13
2023-05-24T13:11:55.298Z,19.23
2023-05-24T13:14:23.464Z,16.50
2023-05-24T13:16:51.604Z,15.07
2023-05-24T13:19:19.792Z,17.13
2023-05-24T13:21:49.161Z,16.25
2023-05-24T13:24:17.481Z,16.85
2023-05-24T13:26:46.170Z,14.02
2023-05-24T13:31:45.600Z,13.88
2023-05-24T13:34:13.754Z,14.25
2023-05-24T13:36:42.066Z,14.32
2023-05-24T13:41:43.559Z,13.52
2023-05-24T13:44:11.874Z,13.70
2023-05-24T13:46:40.483Z,14.20
2023-05-24T13:49:09.810Z,14.32
2023-05-24T13:51:38.412Z,13.77
2023-05-24T13:54:08.116Z,15.02
2023-05-24T13:56:38.764Z,17.48
2023-05-24T13:59:08.557Z,15.77
2023-05-24T14:01:37.832Z,15.30
2023-05-24T14:04:07.894Z,17.13
2023-05-24T14:06:37.550Z,12.75
2023-05-24T14:09:07.079Z,11.25
2023-05-24T14:11:35.115Z,13.85
2023-05-24T14:16:35.510Z,15.73
2023-05-24T14:19:03.709Z,17.30
2023-05-24T14:21:32.459Z,16.25
2023-05-24T14:24:00.830Z,18.20
2023-05-24T14:26:28.866Z,16.90
2023-05-24T14:28:57.167Z,15.82
2023-05-24T14:31:26.937Z,16.05
2023-05-24T14:33:54.998Z,17.80
2023-05-24T14:36:23.022Z,15.20
2023-05-24T14:38:51.046Z,15.38
2023-05-24T14:41:19.245Z,13.63
2023-05-24T14:43:47.213Z,14.75
2023-05-24T14:46:15.246Z,13.93
2023-05-24T14:48:44.632Z,11.27
2023-05-24T14:51:12.661Z,14.77
2023-05-24T14:53:40.768Z,13.60
2023-05-24T14:56:10.061Z,12.52
2023-05-24T14:58:38.222Z,14.30
2023-05-24T15:01:06.886Z,19.50
2023-05-24T15:03:35.255Z,13.05
2023-05-24T15:06:06.486Z,11.98
2023-05-24T15:08:35.206Z,14.15
2023-05-24T15:11:03.234Z,13.15
2023-05-24T15:13:31.266Z,11.88
2023-05-24T15:16:00.537Z,14.77
2023-05-24T15:18:29.059Z,10.68
2023-05-24T15:20:57.296Z,15.80
2023-05-24T15:23:26.963Z,12.60
2023-05-24T15:25:55.083Z,11.93
2023-05-24T15:28:26.036Z,10.60
2023-05-24T15:30:54.727Z,14.80
2023-05-24T15:33:22.921Z,12.45
2023-05-24T15:35:51.257Z,10.93
2023-05-24T15:38:19.406Z,13.90
2023-05-24T15:40:48.750Z,17.08
2023-05-24T15:43:18.977Z,15.38
2023-05-24T15:45:47.532Z,14.85
2023-05-24T15:48:15.717Z,11.25
2023-05-24T15:51:06.539Z,16.40
2023-05-24T15:53:32.633Z,14.43
2023-05-24T15:56:02.063Z,11.35
2023-05-24T15:58:30.078Z,14.77
2023-05-24T16:00:58.142Z,12.38
2023-05-24T16:03:26.296Z,13.27
2023-05-24T16:05:54.376Z,14.70
2023-05-24T16:08:27.593Z,15.82
2023-05-24T16:10:55.723Z,12.48
2023-05-24T16:13:25.663Z,17.35
2023-05-24T16:15:53.695Z,15.57
2023-05-24T16:18:23.621Z,14.23
2023-05-24T16:20:52.606Z,16.75
2023-05-24T16:23:23.019Z,14.85
2023-05-24T16:25:51.749Z,17.15
2023-05-24T16:28:23.820Z,16.15
2023-05-24T16:30:55.939Z,11.98
2023-05-24T16:33:24.352Z,17.02
2023-05-24T16:35:56.057Z,13.30
2023-05-24T16:38:24.503Z,16.58
2023-05-24T16:40:53.732Z,20.58
2023-05-24T16:43:22.677Z,17.13
2023-05-24T16:45:51.376Z,14.30
2023-05-24T16:48:23.261Z,12.65
2023-05-24T16:50:53.925Z,18.27
2023-05-24T16:53:23.088Z,14.93
2023-05-24T16:55:53.873Z,15.90
2023-05-24T16:58:22.343Z,15.18
2023-05-24T17:00:50.591Z,15.75
2023-05-24T17:03:22.068Z,11.82
2023-05-24T17:05:50.416Z,15.35
2023-05-24T17:08:18.930Z,23.10
2023-05-24T17:10:46.986Z,12.25
2023-05-24T17:13:14.997Z,13.77
2023-05-24T17:15:43.037Z,17.17
2023-05-24T17:18:11.506Z,14.68
2023-05-24T17:20:41.223Z,18.58
2023-05-24T17:23:09.596Z,21.77
2023-05-24T17:25:37.556Z,17.48
2023-05-24T17:28:05.526Z,15.35
2023-05-24T17:30:33.612Z,15.07
2023-05-24T17:33:01.695Z,16.77
2023-05-24T17:35:29.765Z,15.57
2023-05-24T17:37:59.171Z,16.23
2023-05-24T17:40:27.284Z,15.40
2023-05-24T17:42:55.278Z,15.48
2023-05-24T17:45:23.251Z,18.42
2023-05-24T17:47:51.333Z,20.25
2023-05-24T17:50:19.342Z,16.45
2023-05-24T17:52:47.441Z,14.18
2023-05-24T17:55:17.019Z,13.18
2023-05-24T17:57:45.806Z,13.18
2023-05-24T18:00:14.810Z,17.55
2023-05-24T18:02:43.181Z,14.38
2023-05-24T18:05:11.638Z,17.08
2023-05-24T18:07:39.642Z,12.07
2023-05-24T18:10:08.908Z,15.05
2023-05-24T18:12:38.752Z,15.95
2023-05-24T18:15:08.501Z,17.27
2023-05-24T18:17:36.888Z,13.90
2023-05-24T18:20:05.718Z,13.18
2023-05-24T18:22:33.768Z,17.60
2023-05-24T18:25:01.812Z,18.98
2023-05-24T18:27:29.823Z,15.93
2023-05-24T18:29:59.344Z,15.88
2023-05-24T18:32:27.488Z,15.27
2023-05-24T18:34:57.018Z,20.90
2023-05-24T18:37:25.054Z,20.17
2023-05-24T18:39:53.038Z,15.93
2023-05-24T18:42:21.088Z,23.30
2023-05-24T18:44:49.074Z,16.33
2023-05-24T18:47:18.573Z,17.83
2023-05-24T18:49:46.796Z,18.35
2023-05-24T18:52:14.982Z,18.60
2023-05-24T18:54:43.053Z,18.20
2023-05-24T18:57:11.046Z,15.93
2023-05-24T18:59:39.093Z,18.38
2023-05-24T19:02:07.508Z,15.38
2023-05-24T19:04:36.925Z,15.55
2023-05-24T19:07:05.093Z,16.38
2023-05-24T19:09:33.874Z,15.50
2023-05-24T19:12:04.531Z,14.07
2023-05-24T19:14:32.682Z,14.38
2023-05-24T19:17:00.772Z,14.18
2023-05-24T19:19:28.769Z,15.75
2023-05-24T19:21:58.179Z,14.93
2023-05-24T19:24:26.274Z,13.45
2023-05-24T19:26:54.424Z,19.70
2023-05-24T19:29:22.380Z,15.88
2023-05-24T19:31:50.968Z,19.42
2023-05-24T19:34:19.885Z,16.33
2023-05-24T19:36:47.897Z,14.73
2023-05-24T19:39:17.360Z,13.77
2023-05-24T19:41:45.373Z,13.98
2023-05-24T19:44:13.452Z,15.18
2023-05-24T19:46:41.513Z,17.27
2023-05-24T19:49:09.603Z,15.10
2023-05-24T19:51:37.590Z,17.48
2023-05-24T19:54:06.045Z,13.75
2023-05-24T19:56:35.455Z,15.98
2023-05-24T19:59:03.506Z,16.02
2023-05-24T20:01:31.773Z,15.75
2023-05-24T20:03:59.859Z,14.88
2023-05-24T20:06:27.907Z,17.25
2023-05-24T20:08:58.778Z,16.90
2023-05-24T20:11:28.165Z,13.95
2023-05-24T20:13:58.873Z,18.48
2023-05-24T20:16:27.029Z,15.10
2023-05-24T20:18:55.177Z,17.92
2023-05-24T20:21:23.192Z,18.90
2023-05-24T20:23:57.727Z,18.10
2023-05-24T20:26:26.989Z,21.80
2023-05-24T20:28:55.068Z,14.82
2023-05-24T20:31:24.444Z,14.90
2023-05-24T20:33:52.962Z,16.10
2023-05-24T20:36:20.973Z,19.15
2023-05-24T20:38:49.347Z,17.77
2023-05-24T20:41:17.481Z,16.73
2023-05-24T20:43:45.521Z,16.92
2023-05-24T20:46:14.959Z,18.00
2023-05-24T20:48:44.933Z,16.42
2023-05-24T20:51:12.932Z,13.43
2023-05-24T20:53:40.956Z,17.92
2023-05-24T20:56:08.922Z,14.80
2023-05-24T20:58:36.884Z,15.20
2023-05-24T21:01:04.961Z,16.95
2023-05-24T21:03:33.055Z,18.45
2023-05-24T21:06:02.467Z,15.40
2023-05-24T21:08:30.484Z,14.77
2023-05-24T21:10:58.497Z,17.42
2023-05-24T21:13:28.148Z,15.93
2023-05-24T21:15:56.152Z,14.80
2023-05-24T21:18:24.180Z,15.95
2023-05-24T21:20:52.326Z,15.70
2023-05-24T21:23:21.646Z,16.38
2023-05-24T21:25:49.652Z,12.95
2023-05-24T21:28:17.663Z,19.70
2023-05-24T21:30:45.751Z,16.90
2023-05-24T21:33:13.937Z,16.07
2023-05-24T21:35:42.114Z,17.53
2023-05-24T21:38:10.179Z,14.05
2023-05-24T21:40:39.538Z,16.73
2023-05-24T21:43:12.052Z,17.48
2023-05-24T21:45:40.353Z,16.75
2023-05-24T21:48:09.293Z,16.50
2023-05-24T21:50:37.297Z,19.10
2023-05-24T21:53:05.314Z,17.63
2023-05-24T21:55:33.319Z,17.88
2023-05-24T21:58:02.702Z,16.88
2023-05-24T22:00:30.744Z,18.02
2023-05-24T22:02:58.850Z,16.60
2023-05-24T22:05:27.989Z,18.63
2023-05-24T22:07:56.218Z,18.15
2023-05-24T22:10:24.203Z,17.05
2023-05-24T22:12:52.197Z,17.42
2023-05-24T22:15:21.577Z,18.23
2023-05-24T22:17:50.390Z,17.58
2023-05-24T22:20:19.356Z,17.52
2023-05-24T22:22:53.589Z,17.95
2023-05-24T22:25:22.068Z,17.80
2023-05-24T22:27:50.485Z,19.83
2023-05-24T22:30:19.564Z,16.55
2023-05-24T22:32:48.978Z,18.83
2023-05-24T22:35:17.265Z,16.40
2023-05-24T22:37:45.283Z,21.30
2023-05-24T22:40:14.258Z,20.03
2023-05-24T22:42:42.397Z,16.17
2023-05-24T22:45:11.456Z,17.75
2023-05-24T22:47:39.860Z,19.02
2023-05-24T22:50:10.250Z,19.38
2023-05-24T22:52:42.377Z,18.05
2023-05-24T22:55:11.226Z,16.75
2023-05-24T22:57:39.369Z,18.50
2023-05-24T23:00:08.943Z,18.17
2023-05-24T23:02:37.229Z,19.87
2023-05-24T23:05:05.832Z,14.47
2023-05-24T23:07:37.468Z,19.53
2023-05-24T23:10:06.107Z,16.73
2023-05-24T23:12:34.383Z,17.00
2023-05-24T23:15:02.383Z,15.57
2023-05-24T23:17:30.756Z,17.97
2023-05-24T23:19:59.316Z,16.38
2023-05-24T23:22:27.405Z,17.48
2023-05-24T23:24:56.803Z,18.98
2023-05-24T23:27:24.764Z,18.08
2023-05-24T23:29:52.784Z,17.65
2023-05-24T23:32:20.878Z,20.10
2023-05-24T23:34:48.883Z,18.08
2023-05-24T23:37:17.020Z,18.10
2023-05-24T23:39:45.007Z,20.42
2023-05-24T23:42:14.392Z,17.60
2023-05-24T23:44:42.430Z,21.25
2023-05-24T23:47:10.534Z,25.30
2023-05-24T23:49:38.619Z,20.45
2023-05-24T23:52:07.599Z,18.90
2023-05-24T23:54:35.657Z,18.75
2023-05-24T23:57:04.122Z,18.25
2023-05-24T23:59:33.453Z,15.13
